createdAt,value
2018-04-23T00:00:31.177Z,5.93
2018-04-23T00:03:36.437Z,6.43
2018-04-23T00:06:41.733Z,5.00
2018-04-23T00:09:47.007Z,5.60
2018-04-23T00:12:52.026Z,6.80
2018-04-23T00:15:58.215Z,7.93
2018-04-23T00:19:04.413Z,6.17
2018-04-23T00:22:10.609Z,3.97
2018-04-23T00:25:16.890Z,4.17
2018-04-23T00:28:22.678Z,4.33
2018-04-23T00:31:28.902Z,6.60
2018-04-23T00:34:34.226Z,4.57
2018-04-23T00:37:39.524Z,4.67
2018-04-23T00:40:44.785Z,4.40
2018-04-23T00:43:50.984Z,4.00
2018-04-23T00:46:55.967Z,4.50
2018-04-23T00:50:02.175Z,4.63
2018-04-23T00:53:18.619Z,4.37
2018-04-23T00:56:24.337Z,3.60
2018-04-23T00:59:29.650Z,3.53
2018-04-23T01:02:35.732Z,3.90
2018-04-23T01:05:41.404Z,4.07
2018-04-23T01:08:47.270Z,3.30
2018-04-23T01:11:52.606Z,3.87
2018-04-23T01:14:58.701Z,2.93
2018-04-23T01:18:04.598Z,3.10
2018-04-23T01:21:10.690Z,4.03
2018-04-23T01:24:17.625Z,3.30
2018-04-23T01:27:23.500Z,4.63
2018-04-23T01:30:29.612Z,3.67
2018-04-23T01:33:34.887Z,3.53
2018-04-23T01:36:40.902Z,3.50
2018-04-23T01:39:46.897Z,5.50
2018-04-23T01:42:53.087Z,3.90
2018-04-23T01:45:58.964Z,4.33
2018-04-23T01:49:04.753Z,5.87
2018-04-23T01:52:09.499Z,4.93
2018-04-23T01:55:15.311Z,4.33
2018-04-23T01:58:21.481Z,4.80
2018-04-23T02:01:26.749Z,4.57
2018-04-23T02:04:34.105Z,5.10
2018-04-23T02:07:39.020Z,4.23
2018-04-23T02:10:44.651Z,4.77
2018-04-23T02:13:50.669Z,4.30
2018-04-23T02:16:56.484Z,8.23
2018-04-23T02:20:01.669Z,5.53
2018-04-23T02:23:07.476Z,6.70
2018-04-23T02:26:12.836Z,4.53
2018-04-23T02:29:18.964Z,8.60
2018-04-23T02:32:24.567Z,8.20
2018-04-23T02:35:29.776Z,5.67
2018-04-23T02:38:34.757Z,5.20
2018-04-23T02:41:40.736Z,4.30
2018-04-23T02:44:45.937Z,6.57
2018-04-23T02:47:51.667Z,5.53
2018-04-23T02:50:57.407Z,6.63
2018-04-23T02:54:02.756Z,10.13
2018-04-23T02:57:08.920Z,6.60
2018-04-23T03:00:14.129Z,5.17
2018-04-23T03:03:19.348Z,5.40
2018-04-23T03:06:24.651Z,4.47
2018-04-23T03:09:29.510Z,3.73
2018-04-23T03:12:35.144Z,5.53
2018-04-23T03:15:40.111Z,3.53
2018-04-23T03:18:46.212Z,3.33
2018-04-23T03:21:51.832Z,4.57
2018-04-23T03:24:57.855Z,4.00
2018-04-23T03:28:04.022Z,6.50
2018-04-23T03:31:09.608Z,4.60
2018-04-23T03:34:15.731Z,4.33
2018-04-23T03:37:21.892Z,7.67
2018-04-23T03:40:27.084Z,6.40
2018-04-23T03:43:33.195Z,4.50
2018-04-23T03:46:39.712Z,5.50
2018-04-23T03:49:45.308Z,4.17
2018-04-23T03:52:50.518Z,4.20
2018-04-23T03:55:56.539Z,9.87
2018-04-23T03:59:02.569Z,4.00
2018-04-23T04:02:08.471Z,4.60
2018-04-23T04:05:14.348Z,6.20
2018-04-23T04:08:19.536Z,5.27
2018-04-23T04:11:24.836Z,6.57
2018-04-23T04:14:41.572Z,5.47
2018-04-23T04:21:35.440Z,5.50
2018-04-23T04:24:41.301Z,7.50
2018-04-23T04:27:47.477Z,7.10
2018-04-23T04:30:53.259Z,16.67
2018-04-23T04:33:58.191Z,8.07
2018-04-23T04:37:03.381Z,9.43
2018-04-23T04:40:09.498Z,9.00
2018-04-23T04:43:15.148Z,21.23
2018-04-23T04:46:20.994Z,11.00
2018-04-23T04:49:26.648Z,8.80
2018-04-23T04:52:32.675Z,12.73
2018-04-23T04:55:38.788Z,14.10
2018-04-23T04:58:44.874Z,17.50
2018-04-23T05:01:50.804Z,9.83
2018-04-23T05:04:56.840Z,12.13
2018-04-23T05:08:02.996Z,11.60
2018-04-23T05:11:08.925Z,11.67
2018-04-23T05:14:14.942Z,14.70
2018-04-23T05:17:21.080Z,21.33
2018-04-23T05:20:26.344Z,16.00
2018-04-23T05:23:32.067Z,13.87
2018-04-23T05:26:38.034Z,18.27
2018-04-23T05:29:43.889Z,20.60
2018-04-23T05:32:49.992Z,19.90
2018-04-23T05:35:56.032Z,20.70
2018-04-23T05:39:02.083Z,16.50
2018-04-23T05:42:06.809Z,15.40
2018-04-23T05:45:12.473Z,24.60
2018-04-23T05:48:18.506Z,19.40
2018-04-23T05:51:24.631Z,13.10
2018-04-23T05:54:30.685Z,19.37
2018-04-23T05:57:35.899Z,21.50
2018-04-23T06:00:41.133Z,18.87
2018-04-23T06:03:47.256Z,16.20
2018-04-23T06:06:52.883Z,16.80
2018-04-23T06:09:59.029Z,17.10
2018-04-23T06:13:04.944Z,17.33
2018-04-23T06:16:10.760Z,18.30
2018-04-23T06:19:16.387Z,22.13
2018-04-23T06:22:21.634Z,17.27
2018-04-23T06:25:26.897Z,24.10
2018-04-23T06:28:32.283Z,21.80
2018-04-23T06:31:37.509Z,21.87
2018-04-23T06:34:42.721Z,20.27
2018-04-23T06:37:48.940Z,26.40
2018-04-23T06:40:54.777Z,22.17
2018-04-23T06:44:00.804Z,36.50
2018-04-23T06:47:06.859Z,30.43
2018-04-23T06:50:12.912Z,32.53
2018-04-23T06:53:18.303Z,27.97
2018-04-23T06:56:23.888Z,36.93
2018-04-23T06:59:28.593Z,29.33
2018-04-23T07:02:34.433Z,30.93
2018-04-23T07:05:40.405Z,34.93
2018-04-23T07:08:46.249Z,27.20
2018-04-23T07:11:52.389Z,26.27
2018-04-23T07:14:58.521Z,28.70
2018-04-23T07:18:03.748Z,32.87
2018-04-23T07:21:09.380Z,31.57
2018-04-23T07:24:14.601Z,36.43
2018-04-23T07:27:20.247Z,32.63
2018-04-23T07:30:26.329Z,35.20
2018-04-23T07:33:32.377Z,30.93
2018-04-23T07:36:38.300Z,31.73
2018-04-23T07:39:44.216Z,33.37
2018-04-23T07:42:50.132Z,34.83
2018-04-23T07:45:56.205Z,33.07
2018-04-23T07:49:02.145Z,29.20
2018-04-23T07:52:07.906Z,33.50
2018-04-23T07:55:14.048Z,33.43
2018-04-23T07:58:20.364Z,29.87
2018-04-23T08:01:26.405Z,34.43
2018-04-23T08:04:32.731Z,41.60
2018-04-23T08:07:38.552Z,32.20
2018-04-23T08:10:44.561Z,35.10
2018-04-23T08:13:49.775Z,42.80
2018-04-23T08:16:55.000Z,39.03
2018-04-23T08:20:00.273Z,33.40
2018-04-23T08:23:06.024Z,51.93
2018-04-23T08:26:12.172Z,48.70
2018-04-23T08:29:18.305Z,46.87
2018-04-23T08:32:24.332Z,50.30
2018-04-23T08:35:31.200Z,48.30
2018-04-23T08:38:37.013Z,43.43
2018-04-23T08:41:43.027Z,47.57
2018-04-23T08:44:48.881Z,41.77
2018-04-23T08:47:54.361Z,41.37
2018-04-23T08:51:00.489Z,43.03
2018-04-23T08:54:05.904Z,36.67
2018-04-23T08:57:11.144Z,34.70
2018-04-23T09:00:17.281Z,52.37
2018-04-23T09:03:23.444Z,38.97
2018-04-23T09:06:28.312Z,40.47
2018-04-23T09:09:34.140Z,38.17
2018-04-23T09:12:39.368Z,40.80
2018-04-23T09:15:44.580Z,38.60
2018-04-23T09:18:50.321Z,47.77
2018-04-23T09:21:56.120Z,37.03
2018-04-23T09:25:01.510Z,36.37
2018-04-23T09:28:06.533Z,36.93
2018-04-23T09:31:12.505Z,37.03
2018-04-23T09:34:18.867Z,37.87
2018-04-23T09:37:25.423Z,32.47
2018-04-23T09:40:30.630Z,42.47
2018-04-23T09:43:36.768Z,42.10
2018-04-23T09:46:41.992Z,48.57
2018-04-23T09:49:47.207Z,46.33
2018-04-23T09:52:52.431Z,42.67
2018-04-23T09:55:57.632Z,42.33
2018-04-23T09:59:03.580Z,48.67
2018-04-23T10:02:09.092Z,43.33
2018-04-23T10:05:15.045Z,42.27
2018-04-23T10:08:20.458Z,47.77
2018-04-23T10:11:25.672Z,44.57
2018-04-23T10:14:30.888Z,44.53
2018-04-23T10:17:36.103Z,45.60
2018-04-23T10:20:41.319Z,49.07
2018-04-23T10:23:47.474Z,49.33
2018-04-23T10:26:52.692Z,50.63
2018-04-23T10:29:58.617Z,55.97
2018-04-23T10:33:03.834Z,49.67
2018-04-23T10:36:09.054Z,34.83
2018-04-23T10:39:13.998Z,35.70
2018-04-23T10:42:19.377Z,35.20
2018-04-23T10:45:26.131Z,32.10
2018-04-23T10:48:32.387Z,29.53
2018-04-23T10:51:38.017Z,32.43
2018-04-23T10:54:44.055Z,30.10
2018-04-23T10:57:49.869Z,30.47
2018-04-23T11:00:55.076Z,22.97
2018-04-23T11:04:00.470Z,21.93
2018-04-23T11:07:05.401Z,20.57
2018-04-23T11:10:10.605Z,13.60
2018-04-23T11:13:15.794Z,17.10
2018-04-23T11:16:21.028Z,8.67
2018-04-23T11:19:27.126Z,6.43
2018-04-23T11:22:33.143Z,6.33
2018-04-23T11:25:39.144Z,9.00
2018-04-23T11:28:45.385Z,4.47
2018-04-23T11:31:52.321Z,8.50
2018-04-23T11:34:58.123Z,4.50
2018-04-23T11:38:04.060Z,4.10
2018-04-23T11:41:09.815Z,6.03
2018-04-23T11:44:15.004Z,4.97
2018-04-23T11:47:20.620Z,3.80
2018-04-23T11:50:26.768Z,5.80
2018-04-23T11:53:32.952Z,8.47
2018-04-23T11:56:38.972Z,8.40
2018-04-23T11:59:44.884Z,4.33
2018-04-23T12:02:50.656Z,3.37
2018-04-23T12:05:55.858Z,2.60
2018-04-23T12:09:01.074Z,2.00
2018-04-23T12:12:06.915Z,3.47
2018-04-23T12:15:12.112Z,17.67
2018-04-23T12:18:17.378Z,3.47
2018-04-23T12:21:23.317Z,5.83
2018-04-23T12:24:29.240Z,3.93
2018-04-23T12:27:35.375Z,7.73
2018-04-23T12:30:41.061Z,6.10
2018-04-23T12:33:46.936Z,5.63
2018-04-23T12:36:52.213Z,3.27
2018-04-23T12:39:57.829Z,4.83
2018-04-23T12:43:03.872Z,1.83
2018-04-23T12:46:09.951Z,3.63
2018-04-23T12:49:16.289Z,2.23
2018-04-23T12:52:22.105Z,1.50
2018-04-23T12:55:28.228Z,3.53
2018-04-23T12:58:33.604Z,2.30
2018-04-23T13:01:38.813Z,3.47
2018-04-23T13:04:44.014Z,4.67
2018-04-23T13:07:49.251Z,6.93
2018-04-23T13:10:54.477Z,2.53
2018-04-23T13:13:59.680Z,1.60
2018-04-23T13:17:05.792Z,1.30
2018-04-23T13:20:11.805Z,3.07
2018-04-23T13:23:17.812Z,2.50
2018-04-23T13:26:23.841Z,2.67
2018-04-23T13:29:29.963Z,1.87
2018-04-23T13:32:35.980Z,3.00
2018-04-23T13:35:42.020Z,3.07
2018-04-23T13:38:47.952Z,1.40
2018-04-23T13:41:53.907Z,4.40
2018-04-23T13:44:59.617Z,3.47
2018-04-23T13:48:05.768Z,2.20
2018-04-23T13:51:11.687Z,3.60
2018-04-23T13:54:17.713Z,4.50
2018-04-23T13:57:23.695Z,2.83
2018-04-23T14:00:29.732Z,3.10
2018-04-23T14:03:35.869Z,4.33
2018-04-23T14:06:41.893Z,7.30
2018-04-23T14:09:48.576Z,6.40
2018-04-23T14:12:55.117Z,5.70
2018-04-23T14:16:00.601Z,9.70
2018-04-23T14:19:06.209Z,5.33
2018-04-23T14:22:12.376Z,14.80
2018-04-23T14:25:17.572Z,6.23
2018-04-23T14:28:23.499Z,5.07
2018-04-23T14:31:28.705Z,8.40
2018-04-23T14:34:34.829Z,5.77
2018-04-23T14:37:40.518Z,6.30
2018-04-23T14:40:47.659Z,8.90
2018-04-23T14:43:53.143Z,11.10
2018-04-23T14:46:59.260Z,7.37
2018-04-23T14:50:04.524Z,4.00
2018-04-23T14:53:09.803Z,4.30
2018-04-23T14:56:15.156Z,3.90
2018-04-23T14:59:20.906Z,9.27
2018-04-23T15:02:27.106Z,4.47
2018-04-23T15:05:32.319Z,5.20
2018-04-23T15:08:37.507Z,3.63
2018-04-23T15:11:42.903Z,8.17
2018-04-23T15:14:48.551Z,6.13
2018-04-23T15:17:53.768Z,3.27
2018-04-23T15:21:00.108Z,7.57
2018-04-23T15:24:05.443Z,5.50
2018-04-23T15:27:10.604Z,9.10
2018-04-23T15:30:15.816Z,5.67
2018-04-23T15:33:21.969Z,9.07
2018-04-23T15:36:27.688Z,6.00
2018-04-23T15:39:33.714Z,3.73
2018-04-23T15:42:39.721Z,9.43
2018-04-23T15:45:45.557Z,6.30
2018-04-23T15:48:50.484Z,6.83
2018-04-23T15:51:55.677Z,8.40
2018-04-23T15:55:02.813Z,5.90
2018-04-23T15:58:08.627Z,9.30
2018-04-23T16:01:13.874Z,7.00
2018-04-23T16:04:19.116Z,3.83
2018-04-23T16:07:24.381Z,9.37
2018-04-23T16:10:29.608Z,2.97
2018-04-23T16:13:36.608Z,4.70
2018-04-23T16:16:41.954Z,10.13
2018-04-23T16:19:47.148Z,2.60
2018-04-23T16:22:53.265Z,3.60
2018-04-23T16:25:58.987Z,9.10
2018-04-23T16:29:05.316Z,3.23
2018-04-23T16:32:11.445Z,8.47
2018-04-23T16:35:16.884Z,13.63
2018-04-23T16:38:22.085Z,2.57
2018-04-23T16:41:28.204Z,4.40
2018-04-23T16:44:33.414Z,2.50
2018-04-23T16:47:38.640Z,5.13
2018-04-23T16:50:43.876Z,10.37
2018-04-23T16:53:49.106Z,4.57
2018-04-23T16:56:55.336Z,3.33
2018-04-23T17:00:01.307Z,1.90
2018-04-23T17:03:06.492Z,2.27
2018-04-23T17:06:11.772Z,2.10
2018-04-23T17:09:17.914Z,2.40
2018-04-23T17:12:23.204Z,5.10
2018-04-23T17:15:29.258Z,0.67
2018-04-23T17:18:35.455Z,3.10
2018-04-23T17:21:41.668Z,5.23
2018-04-23T17:24:46.576Z,4.63
2018-04-23T17:27:51.788Z,5.47
2018-04-23T17:30:57.516Z,1.47
2018-04-23T17:34:04.369Z,1.00
2018-04-23T17:37:09.272Z,2.70
2018-04-23T17:40:15.662Z,12.00
2018-04-23T17:43:21.084Z,1.10
2018-04-23T17:46:26.041Z,1.73
2018-04-23T17:49:32.152Z,3.77
2018-04-23T17:52:37.786Z,7.63
2018-04-23T17:55:42.755Z,1.17
2018-04-23T17:58:47.988Z,1.27
2018-04-23T18:01:53.359Z,1.57
2018-04-23T18:04:58.316Z,1.23
2018-04-23T18:08:04.280Z,3.03
2018-04-23T18:11:10.119Z,2.40
2018-04-23T18:14:15.957Z,1.60
2018-04-23T18:17:20.992Z,3.17
2018-04-23T18:20:25.932Z,4.17
2018-04-23T18:23:31.476Z,2.23
2018-04-23T18:26:37.455Z,3.13
2018-04-23T18:29:42.402Z,3.60
2018-04-23T18:32:47.293Z,4.50
2018-04-23T18:35:52.885Z,3.40
2018-04-23T18:38:57.808Z,3.27
2018-04-23T18:42:02.747Z,1.63
2018-04-23T18:45:08.178Z,3.23
2018-04-23T18:48:14.052Z,4.83
2018-04-23T18:51:19.027Z,1.53
2018-04-23T18:54:23.955Z,1.37
2018-04-23T18:57:29.960Z,2.43
2018-04-23T19:00:35.318Z,2.40
2018-04-23T19:03:41.157Z,3.10
2018-04-23T19:06:46.081Z,1.90
2018-04-23T19:09:51.670Z,2.70
2018-04-23T19:12:56.876Z,2.03
2018-04-23T19:16:02.837Z,6.57
2018-04-23T19:19:09.004Z,6.63
2018-04-23T19:22:14.481Z,3.50
2018-04-23T19:25:21.160Z,2.83
2018-04-23T19:28:27.024Z,6.00
2018-04-23T19:31:32.002Z,6.10
2018-04-23T19:34:37.857Z,3.03
2018-04-23T19:37:43.256Z,2.37
2018-04-23T19:40:49.360Z,9.83
2018-04-23T19:43:55.016Z,2.50
2018-04-23T19:47:00.923Z,5.83
2018-04-23T19:50:05.273Z,4.20
2018-04-23T19:53:11.179Z,3.47
2018-04-23T19:56:17.287Z,4.73
2018-04-23T19:59:22.212Z,4.10
2018-04-23T20:02:27.653Z,4.10
2018-04-23T20:05:32.560Z,5.10
2018-04-23T20:08:37.964Z,3.40
2018-04-23T20:11:43.771Z,2.80
2018-04-23T20:14:49.128Z,2.50
2018-04-23T20:17:53.721Z,6.70
2018-04-23T20:20:59.398Z,11.33
2018-04-23T20:24:05.301Z,3.17
2018-04-23T20:27:10.898Z,4.97
2018-04-23T20:30:16.735Z,3.80
2018-04-23T20:33:22.623Z,4.73
2018-04-23T20:36:28.606Z,3.07
2018-04-23T20:39:33.203Z,8.30
2018-04-23T20:42:38.628Z,9.13
2018-04-23T20:45:44.077Z,6.20
2018-04-23T20:48:49.000Z,4.00
2018-04-23T20:51:54.192Z,4.07
2018-04-23T20:54:59.559Z,2.60
2018-04-23T20:58:04.425Z,5.07
2018-04-23T21:01:09.221Z,5.53
2018-04-23T21:04:15.234Z,5.40
2018-04-23T21:07:20.857Z,6.10
2018-04-23T21:10:27.051Z,4.73
2018-04-23T21:13:32.584Z,7.60
2018-04-23T21:16:37.788Z,8.83
2018-04-23T21:19:44.155Z,1.27
2018-04-23T21:22:49.480Z,2.13
2018-04-23T21:25:55.440Z,6.70
2018-04-23T21:29:01.036Z,3.87
2018-04-23T21:32:06.951Z,7.00
2018-04-23T21:35:13.716Z,4.07
2018-04-23T21:38:19.803Z,6.73
2018-04-23T21:41:24.990Z,2.13
2018-04-23T21:44:30.392Z,3.37
2018-04-23T21:47:37.542Z,6.13
2018-04-23T21:50:42.489Z,4.90
2018-04-23T21:53:47.420Z,11.17
2018-04-23T21:56:52.996Z,4.87
2018-04-23T21:59:57.907Z,5.40
2018-04-23T22:03:03.356Z,6.33
2018-04-23T22:06:09.192Z,10.73
2018-04-23T22:09:15.084Z,9.03
2018-04-23T22:12:20.623Z,2.80
2018-04-23T22:15:25.536Z,7.30
2018-04-23T22:18:30.941Z,3.77
2018-04-23T22:21:36.547Z,3.60
2018-04-23T22:24:41.456Z,2.13
2018-04-23T22:27:46.381Z,3.20
2018-04-23T22:30:51.804Z,2.97
2018-04-23T22:33:56.752Z,4.53
2018-04-23T22:37:02.644Z,6.57
2018-04-23T22:40:07.627Z,5.40
2018-04-23T22:43:12.580Z,7.93
2018-04-23T22:46:17.762Z,6.03
2018-04-23T22:49:22.680Z,10.43
2018-04-23T22:52:27.876Z,7.90
2018-04-23T22:55:32.822Z,5.23
2018-04-23T22:58:37.740Z,3.13
2018-04-23T23:01:42.853Z,2.87
2018-04-23T23:04:48.754Z,5.00
2018-04-23T23:07:54.583Z,5.73
2018-04-23T23:10:59.772Z,2.73
2018-04-23T23:14:05.215Z,6.83
2018-04-23T23:17:10.844Z,2.43
2018-04-23T23:20:16.875Z,2.77
2018-04-23T23:23:22.716Z,5.40
2018-04-23T23:26:28.326Z,4.20
2018-04-23T23:29:33.521Z,5.70
2018-04-23T23:32:38.744Z,4.90
2018-04-23T23:35:45.536Z,6.33
2018-04-23T23:38:50.905Z,9.93
2018-04-23T23:41:57.008Z,3.30
2018-04-23T23:45:02.653Z,8.47
2018-04-23T23:48:08.540Z,2.87
2018-04-23T23:51:13.745Z,4.50
2018-04-23T23:54:18.993Z,8.00
2018-04-23T23:57:24.173Z,4.90
